Ryuhomaru — JD2639 — position and weather

sailwx.info

Track history (hours):
 
Tides and Currents Weather Stations Pressure Air Temp Water Temp Dewpoint Dewpoint Depression Visibility Wind Speed Wind Dir Waves Ship Positions

Ryuhomaru

Last reported at 2014-Oct-01 22:32 UTC. Time now 2014-Oct-02 00:35 UTC.
Position N 34°31' E 135°23'.

Length 42 m; draft 3.5 m.

Type: Tug. MMSI: 431000586.

Date/timePositionNaut miles runAvg speedWind from/ knotsBaromVisibWave heightAir tempDewpointWater temp
2014-Oct-01 22:32N 34°31' E 135°23'2 2.2
2014-Oct-01 21:32N 34°33' E 135°22'4 3.6
2014-Oct-01 20:33N 34°33' E 135°27'0 0.0
2014-Oct-01 08:23N 34°33' E 135°27'4 4.0
2014-Oct-01 07:25N 34°31' E 135°23'2 1.0
2014-Oct-01 05:33N 34°32' E 135°24'2 1.9
2014-Oct-01 04:30N 34°33' E 135°26'1 0.6
2014-Oct-01 03:33N 34°33' E 135°27'0 0.0
2014-Oct-01 02:33N 34°33' E 135°27'0 0.0
2014-Oct-01 01:33N 34°33' E 135°27'0 0.0
2014-Oct-01 00:23N 34°33' E 135°27'1 0.0
2014-Sep-30 05:33N 34°33' E 135°26'0 0.2
2014-Sep-30 04:33N 34°33' E 135°26'5 4.7
2014-Sep-30 03:33N 34°33' E 135°20'5 5.1
2014-Sep-30 02:30N 34°33' E 135°27'0 0.0
2014-Sep-30 01:33N 34°33' E 135°27'0 0.0
2014-Sep-30 00:33N 34°33' E 135°27'0 0.0
2014-Sep-29 23:33N 34°33' E 135°27'0 0.0
2014-Sep-29 01:20N 34°33' E 135°27'3 3.6
2014-Sep-29 00:25N 34°31' E 135°24'2 2.5
2014-Sep-28 23:29N 34°33' E 135°25'0 0.1
2014-Sep-28 22:29N 34°33' E 135°25'0 0.0
2014-Sep-28 21:32N 34°33' E 135°25'0 0.0
2014-Sep-28 20:33N 34°33' E 135°25'0 0.1
2014-Sep-28 19:30N 34°33' E 135°25'0 0.0
2014-Sep-28 18:27N 34°33' E 135°25'0 0.1
2014-Sep-28 17:33N 34°33' E 135°25'0 0.1
2014-Sep-28 16:32N 34°33' E 135°25'0 0.0
2014-Sep-28 15:33N 34°33' E 135°25'0 0.0
2014-Sep-28 14:32N 34°33' E 135°25'0 0.0
2014-Sep-28 13:31N 34°33' E 135°25'0 0.0
2014-Sep-28 12:33N 34°33' E 135°25'0 0.1
2014-Sep-28 11:25N 34°33' E 135°25'0 0.1
2014-Sep-28 10:33N 34°33' E 135°25'0 0.0
2014-Sep-28 09:30N 34°33' E 135°25'0 0.1
2014-Sep-28 08:33N 34°33' E 135°25'0 0.1
2014-Sep-28 07:33N 34°33' E 135°25'0 0.1
2014-Sep-28 06:33N 34°33' E 135°25'0 0.1
2014-Sep-28 05:31N 34°33' E 135°25'0 0.0
2014-Sep-28 04:33N 34°33' E 135°25'0 0.2
2014-Sep-28 03:27N 34°33' E 135°25'4 4.7
2014-Sep-28 02:33N 34°33' E 135°20'5 3.9
2014-Sep-28 01:12N 34°33' E 135°27'0 0.0
2014-Sep-28 00:33N 34°33' E 135°27'0 0.0
2014-Sep-27 23:33N 34°33' E 135°27'0 0.0
2014-Sep-27 22:32N 34°33' E 135°27'0 0.0
2014-Sep-26 05:33N 34°33' E 135°27'4 4.0
2014-Sep-26 04:33N 34°37' E 135°24'6 5.8
2014-Sep-26 03:30N 34°31' E 135°24'0 0.0
2014-Sep-26 02:33N 34°31' E 135°24'0 0.0
2014-Sep-26 01:33N 34°31' E 135°24'2 1.7
2014-Sep-26 00:32N 34°32' E 135°23'3 3.2
2014-Sep-25 23:33N 34°33' E 135°27'0 0.0
2014-Sep-25 22:33N 34°33' E 135°27'0 0.0
2014-Sep-25 08:15N 34°33' E 135°27'1 0.7
2014-Sep-25 07:21N 34°34' E 135°26'4 5.0
2014-Sep-25 06:32N 34°33' E 135°21'5 4.7
2014-Sep-25 05:33N 34°33' E 135°27'0 0.0
2014-Sep-25 04:27N 34°33' E 135°27'0 0.0
2014-Sep-25 03:30N 34°33' E 135°27'0 0.0
2014-Sep-25 02:33N 34°33' E 135°27'0 0.0
2014-Sep-25 01:30N 34°33' E 135°27'0 0.0
2014-Sep-25 00:31N 34°33' E 135°27'0 0.0
2014-Sep-24 23:32N 34°33' E 135°27'0 0.0
2014-Sep-24 22:33N 34°33' E 135°27'0 0.0
2014-Sep-24 05:22N 34°33' E 135°27'1 1.2
2014-Sep-24 04:17N 34°33' E 135°25'1 1.7
2014-Sep-24 03:31N 34°33' E 135°27'0 0.0
2014-Sep-24 02:33N 34°33' E 135°27'0 0.0
2014-Sep-24 01:31N 34°33' E 135°27'0 0.0
2014-Sep-24 00:33N 34°33' E 135°27'0 0.0
2014-Sep-23 23:33N 34°33' E 135°27'0 0.0
2014-Sep-23 22:33N 34°33' E 135°27'0 0.0
2014-Sep-22 07:31N 34°33' E 135°27'8 8.0
2014-Sep-22 06:33N 34°28' E 135°20'2 0.3
2014-Sep-21 23:19N 34°26' E 135°19'  
Track history (hours):
 
Tides and Currents Weather Stations Pressure Air Temp Water Temp Dewpoint Dewpoint Depression Visibility Wind Speed Wind Dir Waves Ship Positions

Ryuhomaru

Last reported at 2014-Oct-01 22:32 UTC. Time now 2014-Oct-02 00:35 UTC.
Position N 34°31' E 135°23'.

Length 42 m; draft 3.5 m.

Type: Tug. MMSI: 431000586.

Date/timePositionNaut miles runAvg speedWind from/ knotsBaromVisibWave heightAir tempDewpointWater temp
2014-Oct-01 22:32N 34°31' E 135°23'2 2.2
2014-Oct-01 21:32N 34°33' E 135°22'4 3.6
2014-Oct-01 20:33N 34°33' E 135°27'0 0.0
2014-Oct-01 08:23N 34°33' E 135°27'4 4.0
2014-Oct-01 07:25N 34°31' E 135°23'2 1.0
2014-Oct-01 05:33N 34°32' E 135°24'2 1.9
2014-Oct-01 04:30N 34°33' E 135°26'1 0.6
2014-Oct-01 03:33N 34°33' E 135°27'0 0.0
2014-Oct-01 02:33N 34°33' E 135°27'0 0.0
2014-Oct-01 01:33N 34°33' E 135°27'0 0.0
2014-Oct-01 00:23N 34°33' E 135°27'1 0.0
2014-Sep-30 05:33N 34°33' E 135°26'0 0.2
2014-Sep-30 04:33N 34°33' E 135°26'5 4.7
2014-Sep-30 03:33N 34°33' E 135°20'5 5.1
2014-Sep-30 02:30N 34°33' E 135°27'0 0.0
2014-Sep-30 01:33N 34°33' E 135°27'0 0.0
2014-Sep-30 00:33N 34°33' E 135°27'0 0.0
2014-Sep-29 23:33N 34°33' E 135°27'0 0.0
2014-Sep-29 01:20N 34°33' E 135°27'3 3.6
2014-Sep-29 00:25N 34°31' E 135°24'2 2.5
2014-Sep-28 23:29N 34°33' E 135°25'0 0.1
2014-Sep-28 22:29N 34°33' E 135°25'0 0.0
2014-Sep-28 21:32N 34°33' E 135°25'0 0.0
2014-Sep-28 20:33N 34°33' E 135°25'0 0.1
2014-Sep-28 19:30N 34°33' E 135°25'0 0.0
2014-Sep-28 18:27N 34°33' E 135°25'0 0.1
2014-Sep-28 17:33N 34°33' E 135°25'0 0.1
2014-Sep-28 16:32N 34°33' E 135°25'0 0.0
2014-Sep-28 15:33N 34°33' E 135°25'0 0.0
2014-Sep-28 14:32N 34°33' E 135°25'0 0.0
2014-Sep-28 13:31N 34°33' E 135°25'0 0.0
2014-Sep-28 12:33N 34°33' E 135°25'0 0.1
2014-Sep-28 11:25N 34°33' E 135°25'0 0.1
2014-Sep-28 10:33N 34°33' E 135°25'0 0.0
2014-Sep-28 09:30N 34°33' E 135°25'0 0.1
2014-Sep-28 08:33N 34°33' E 135°25'0 0.1
2014-Sep-28 07:33N 34°33' E 135°25'0 0.1
2014-Sep-28 06:33N 34°33' E 135°25'0 0.1
2014-Sep-28 05:31N 34°33' E 135°25'0 0.0
2014-Sep-28 04:33N 34°33' E 135°25'0 0.2
2014-Sep-28 03:27N 34°33' E 135°25'4 4.7
2014-Sep-28 02:33N 34°33' E 135°20'5 3.9
2014-Sep-28 01:12N 34°33' E 135°27'0 0.0
2014-Sep-28 00:33N 34°33' E 135°27'0 0.0
2014-Sep-27 23:33N 34°33' E 135°27'0 0.0
2014-Sep-27 22:32N 34°33' E 135°27'0 0.0
2014-Sep-26 05:33N 34°33' E 135°27'4 4.0
2014-Sep-26 04:33N 34°37' E 135°24'6 5.8
2014-Sep-26 03:30N 34°31' E 135°24'0 0.0
2014-Sep-26 02:33N 34°31' E 135°24'0 0.0
2014-Sep-26 01:33N 34°31' E 135°24'2 1.7
2014-Sep-26 00:32N 34°32' E 135°23'3 3.2
2014-Sep-25 23:33N 34°33' E 135°27'0 0.0
2014-Sep-25 22:33N 34°33' E 135°27'0 0.0
2014-Sep-25 08:15N 34°33' E 135°27'1 0.7
2014-Sep-25 07:21N 34°34' E 135°26'4 5.0
2014-Sep-25 06:32N 34°33' E 135°21'5 4.7
2014-Sep-25 05:33N 34°33' E 135°27'0 0.0
2014-Sep-25 04:27N 34°33' E 135°27'0 0.0
2014-Sep-25 03:30N 34°33' E 135°27'0 0.0
2014-Sep-25 02:33N 34°33' E 135°27'0 0.0
2014-Sep-25 01:30N 34°33' E 135°27'0 0.0
2014-Sep-25 00:31N 34°33' E 135°27'0 0.0
2014-Sep-24 23:32N 34°33' E 135°27'0 0.0
2014-Sep-24 22:33N 34°33' E 135°27'0 0.0
2014-Sep-24 05:22N 34°33' E 135°27'1 1.2
2014-Sep-24 04:17N 34°33' E 135°25'1 1.7
2014-Sep-24 03:31N 34°33' E 135°27'0 0.0
2014-Sep-24 02:33N 34°33' E 135°27'0 0.0
2014-Sep-24 01:31N 34°33' E 135°27'0 0.0
2014-Sep-24 00:33N 34°33' E 135°27'0 0.0
2014-Sep-23 23:33N 34°33' E 135°27'0 0.0
2014-Sep-23 22:33N 34°33' E 135°27'0 0.0
2014-Sep-22 07:31N 34°33' E 135°27'8 8.0
2014-Sep-22 06:33N 34°28' E 135°20'2 0.3
2014-Sep-21 23:19N 34°26' E 135°19'  

Dump ship's entire track history